createdAt,value
2022-11-26T00:00:44.283Z,19.63
2022-11-26T00:03:14.040Z,20.88
2022-11-26T00:05:45.599Z,21.75
2022-11-26T00:08:22.488Z,21.52
2022-11-26T00:10:53.994Z,21.90
2022-11-26T00:13:25.896Z,23.00
2022-11-26T00:15:55.115Z,23.25
2022-11-26T00:18:26.834Z,21.73
2022-11-26T00:21:01.049Z,24.13
2022-11-26T00:23:30.654Z,21.60
2022-11-26T00:26:02.689Z,25.38
2022-11-26T00:28:34.121Z,23.60
2022-11-26T00:31:05.644Z,26.60
2022-11-26T00:33:34.759Z,25.88
2022-11-26T00:36:08.338Z,25.20
2022-11-26T00:38:37.079Z,24.30
2022-11-26T00:41:06.501Z,23.10
2022-11-26T00:43:35.355Z,20.88
2022-11-26T00:46:04.090Z,19.55
2022-11-26T00:48:33.106Z,20.48
2022-11-26T00:51:01.836Z,19.95
2022-11-26T00:53:32.110Z,20.48
2022-11-26T00:56:00.833Z,21.52
2022-11-26T00:58:30.962Z,19.58
2022-11-26T01:01:00.891Z,22.17
2022-11-26T01:03:29.851Z,21.80
2022-11-26T01:06:00.324Z,22.15
2022-11-26T01:08:34.321Z,21.80
2022-11-26T01:11:05.067Z,20.15
2022-11-26T01:13:34.172Z,21.75
2022-11-26T01:16:08.490Z,19.98
2022-11-26T01:18:37.354Z,19.73
2022-11-26T01:21:06.132Z,21.10
2022-11-26T01:23:36.096Z,18.73
2022-11-26T01:26:06.531Z,18.45
2022-11-26T01:28:36.229Z,17.92
2022-11-26T01:31:05.032Z,19.15
2022-11-26T01:33:33.840Z,19.83
2022-11-26T01:36:02.738Z,19.52
2022-11-26T01:38:31.731Z,19.05
2022-11-26T01:41:14.245Z,19.15
2022-11-26T01:43:44.661Z,18.67
2022-11-26T01:46:17.504Z,19.45
2022-11-26T01:48:46.802Z,18.48
2022-11-26T01:51:19.815Z,19.88
2022-11-26T01:53:52.958Z,18.92
2022-11-26T01:56:29.505Z,20.67
2022-11-26T01:59:03.539Z,18.98
2022-11-26T02:01:33.987Z,21.63
2022-11-26T02:04:16.472Z,19.42
2022-11-26T02:06:50.586Z,19.65
2022-11-26T02:09:19.981Z,19.20
2022-11-26T02:11:50.851Z,19.70
2022-11-26T02:14:23.234Z,20.75
2022-11-26T02:17:17.003Z,19.77
2022-11-26T02:20:11.076Z,20.13
2022-11-26T02:23:08.172Z,19.92
2022-11-26T02:26:10.073Z,19.33
2022-11-26T02:29:00.082Z,21.08
2022-11-26T02:31:37.524Z,20.98
2022-11-26T02:34:14.606Z,19.65
2022-11-26T02:36:49.277Z,20.80
2022-11-26T02:39:20.782Z,21.50
2022-11-26T02:41:51.540Z,21.23
2022-11-26T02:44:23.202Z,22.27
2022-11-26T02:46:58.577Z,21.95
2022-11-26T02:49:28.895Z,21.85
2022-11-26T02:52:01.240Z,21.33
2022-11-26T02:54:33.425Z,21.20
2022-11-26T02:57:04.835Z,20.83
2022-11-26T02:59:34.428Z,22.30
2022-11-26T03:02:11.275Z,20.95
2022-11-26T03:04:44.577Z,21.60
2022-11-26T03:07:15.073Z,22.73
2022-11-26T03:09:51.950Z,23.52
2022-11-26T03:12:20.814Z,22.13
2022-11-26T03:14:53.118Z,22.27
2022-11-26T03:17:24.563Z,20.48
2022-11-26T03:19:54.305Z,21.80
2022-11-26T03:22:26.224Z,21.80
2022-11-26T03:24:56.320Z,22.25
2022-11-26T03:27:28.958Z,22.60
2022-11-26T03:29:58.434Z,22.27
2022-11-26T03:32:29.044Z,20.73
2022-11-26T03:35:00.404Z,22.35
2022-11-26T03:37:29.941Z,19.73
2022-11-26T03:39:59.029Z,20.05
2022-11-26T03:42:29.697Z,20.70
2022-11-26T03:44:59.256Z,21.67
2022-11-26T03:47:30.706Z,21.98
2022-11-26T03:50:00.063Z,21.52
2022-11-26T03:52:29.705Z,20.02
2022-11-26T03:54:58.705Z,21.88
2022-11-26T03:57:28.183Z,22.20
2022-11-26T03:59:58.446Z,21.98
2022-11-26T04:02:28.153Z,24.02
2022-11-26T04:04:59.033Z,22.50
2022-11-26T04:07:28.625Z,23.77
2022-11-26T04:09:58.009Z,22.85
2022-11-26T04:12:27.285Z,22.05
2022-11-26T04:14:57.756Z,21.15
2022-11-26T04:17:31.386Z,22.70
2022-11-26T04:20:03.894Z,22.30
2022-11-26T04:22:34.700Z,22.25
2022-11-26T04:25:04.267Z,20.92
2022-11-26T04:27:34.246Z,21.65
2022-11-26T04:30:05.366Z,22.02
2022-11-26T04:32:40.810Z,21.48
2022-11-26T04:35:14.780Z,20.67
2022-11-26T04:37:44.976Z,22.02
2022-11-26T04:40:15.882Z,20.80
2022-11-26T04:42:45.491Z,21.83
2022-11-26T04:45:15.069Z,20.60
2022-11-26T04:47:45.419Z,20.92
2022-11-26T04:50:16.326Z,21.58
2022-11-26T04:52:48.720Z,19.85
2022-11-26T04:55:19.725Z,22.00
2022-11-26T04:57:52.531Z,20.43
2022-11-26T05:00:23.979Z,20.33
2022-11-26T05:02:53.265Z,20.17
2022-11-26T05:05:24.321Z,19.88
2022-11-26T05:07:55.933Z,21.13
2022-11-26T05:10:25.772Z,18.58
2022-11-26T05:12:56.170Z,21.75
2022-11-26T05:15:25.858Z,21.10
2022-11-26T05:17:55.426Z,20.20
2022-11-26T05:20:26.714Z,22.42
2022-11-26T05:23:01.350Z,22.83
2022-11-26T05:25:33.969Z,21.85
2022-11-26T05:28:03.845Z,23.00
2022-11-26T05:30:37.405Z,24.17
2022-11-26T05:33:15.512Z,22.88
2022-11-26T05:35:46.749Z,20.80
2022-11-26T05:38:16.829Z,23.40
2022-11-26T05:40:46.921Z,20.85
2022-11-26T05:43:26.245Z,20.65
2022-11-26T05:45:57.014Z,21.88
2022-11-26T05:48:26.786Z,21.90
2022-11-26T05:51:05.623Z,21.90
2022-11-26T05:53:35.347Z,22.38
2022-11-26T05:56:05.454Z,21.20
2022-11-26T05:58:41.803Z,20.42
2022-11-26T06:01:13.947Z,20.90
2022-11-26T06:03:44.574Z,20.15
2022-11-26T06:06:15.507Z,20.88
2022-11-26T06:08:45.040Z,20.55
2022-11-26T06:11:21.662Z,19.63
2022-11-26T06:13:54.468Z,20.10
2022-11-26T06:16:24.060Z,20.15
2022-11-26T06:19:18.993Z,22.58
2022-11-26T06:21:55.219Z,20.80
2022-11-26T06:24:25.920Z,20.83
2022-11-26T06:26:55.526Z,20.90
2022-11-26T06:29:29.147Z,19.67
2022-11-26T06:32:03.199Z,21.60
2022-11-26T06:34:44.642Z,19.92
2022-11-26T06:37:37.267Z,18.70
2022-11-26T06:40:18.839Z,21.90
2022-11-26T06:43:06.333Z,19.90
2022-11-26T06:45:38.930Z,21.35
2022-11-26T06:48:08.862Z,20.30
2022-11-26T06:50:38.508Z,21.00
2022-11-26T06:53:10.574Z,20.80
2022-11-26T06:55:41.373Z,19.90
2022-11-26T06:58:16.007Z,20.25
2022-11-26T07:00:46.219Z,21.10
2022-11-26T07:03:27.023Z,20.27
2022-11-26T07:06:00.822Z,20.38
2022-11-26T07:08:49.850Z,20.50
2022-11-26T07:11:33.991Z,20.35
2022-11-26T07:14:11.110Z,21.27
2022-11-26T07:16:44.568Z,22.05
2022-11-26T07:19:16.797Z,20.02
2022-11-26T07:21:49.251Z,21.50
2022-11-26T07:26:52.859Z,19.85
2022-11-26T07:29:34.124Z,20.17
2022-11-26T07:32:10.354Z,21.08
2022-11-26T07:34:41.658Z,20.95
2022-11-26T07:37:13.123Z,23.98
2022-11-26T07:39:45.762Z,25.55
2022-11-26T07:42:34.245Z,26.33
2022-11-26T07:45:06.135Z,25.63
2022-11-26T07:47:50.549Z,24.20
2022-11-26T07:50:19.590Z,23.35
2022-11-26T07:52:48.502Z,22.33
2022-11-26T07:55:19.518Z,22.58
2022-11-26T07:57:48.748Z,20.85
2022-11-26T08:00:21.503Z,18.35
2022-11-26T08:02:50.287Z,17.23
2022-11-26T08:05:22.036Z,18.25
2022-11-26T08:07:52.281Z,17.27
2022-11-26T08:10:22.543Z,19.25
2022-11-26T08:12:52.289Z,17.63
2022-11-26T08:15:21.480Z,15.98
2022-11-26T08:17:50.446Z,16.60
2022-11-26T08:20:22.223Z,16.05
2022-11-26T08:22:55.494Z,17.05
2022-11-26T08:25:26.810Z,16.33
2022-11-26T08:27:56.953Z,15.90
2022-11-26T08:30:28.128Z,17.27
2022-11-26T08:32:56.800Z,17.48
2022-11-26T08:35:51.187Z,16.80
2022-11-26T08:38:20.327Z,16.63
2022-11-26T08:40:54.392Z,16.50
2022-11-26T08:43:45.068Z,16.23
2022-11-26T08:46:25.036Z,16.05
2022-11-26T08:48:53.679Z,16.13
2022-11-26T08:51:26.224Z,16.08
2022-11-26T08:53:55.077Z,15.90
2022-11-26T08:56:26.956Z,16.08
2022-11-26T08:58:55.631Z,17.15
2022-11-26T09:01:27.707Z,16.75
2022-11-26T09:03:58.891Z,17.33
2022-11-26T09:06:33.384Z,17.00
2022-11-26T09:09:15.521Z,17.17
2022-11-26T09:11:50.572Z,15.40
2022-11-26T09:14:25.160Z,16.50
2022-11-26T09:16:58.655Z,16.58
2022-11-26T09:19:28.749Z,16.73
2022-11-26T09:21:57.741Z,16.45
2022-11-26T09:24:28.509Z,17.95
2022-11-26T09:27:07.256Z,16.95
2022-11-26T09:29:44.657Z,16.40
2022-11-26T09:32:24.266Z,16.73
2022-11-26T09:35:03.422Z,16.55
2022-11-26T09:37:39.039Z,16.88
2022-11-26T09:40:09.202Z,17.52
2022-11-26T09:42:50.951Z,17.17
2022-11-26T09:45:34.727Z,16.30
2022-11-26T09:48:05.591Z,18.42
2022-11-26T09:50:36.167Z,17.83
2022-11-26T09:53:15.440Z,17.67
2022-11-26T09:55:52.378Z,18.35
2022-11-26T09:58:29.465Z,17.25
2022-11-26T10:01:02.444Z,18.23
2022-11-26T10:03:36.508Z,19.02
2022-11-26T10:06:11.706Z,17.20
2022-11-26T10:09:05.080Z,17.02
2022-11-26T10:11:42.441Z,16.77
2022-11-26T10:14:29.469Z,18.15
2022-11-26T10:17:14.101Z,17.27
2022-11-26T10:19:53.499Z,16.20
2022-11-26T10:22:27.324Z,16.35
2022-11-26T10:25:03.999Z,16.05
2022-11-26T10:27:36.654Z,17.90
2022-11-26T10:30:19.130Z,15.77
2022-11-26T10:32:50.156Z,15.90
2022-11-26T10:35:24.062Z,18.52
2022-11-26T10:38:00.928Z,16.35
2022-11-26T10:40:32.323Z,16.67
2022-11-26T10:43:13.534Z,15.90
2022-11-26T10:45:47.064Z,17.50
2022-11-26T10:48:21.860Z,17.08
2022-11-26T10:51:02.442Z,15.75
2022-11-26T10:53:36.300Z,15.70
2022-11-26T10:56:08.627Z,16.88
2022-11-26T10:58:43.331Z,16.02
2022-11-26T11:01:15.475Z,17.27
2022-11-26T11:04:09.202Z,17.80
2022-11-26T11:06:45.021Z,16.60
2022-11-26T11:09:33.041Z,17.23
2022-11-26T11:12:35.076Z,18.02
2022-11-26T11:15:29.239Z,17.33
2022-11-26T11:18:05.969Z,17.95
2022-11-26T11:20:39.306Z,17.42
2022-11-26T11:23:20.535Z,18.40
2022-11-26T11:26:06.311Z,17.67
2022-11-26T11:28:42.800Z,19.80
2022-11-26T11:31:14.471Z,19.83
2022-11-26T11:33:46.940Z,18.42
2022-11-26T11:36:36.339Z,18.95
2022-11-26T11:39:08.455Z,18.73
2022-11-26T11:44:18.441Z,19.35
2022-11-26T11:47:13.598Z,20.33
2022-11-26T11:50:00.596Z,19.20
2022-11-26T11:52:40.348Z,19.52
2022-11-26T11:55:20.045Z,18.65
2022-11-26T11:58:14.913Z,19.05
2022-11-26T12:00:53.014Z,17.77
2022-11-26T12:03:53.610Z,18.17
2022-11-26T12:06:36.977Z,18.77
2022-11-26T12:09:17.441Z,18.50
2022-11-26T12:11:55.187Z,17.75
2022-11-26T12:14:30.908Z,18.98
2022-11-26T12:17:06.388Z,18.25
2022-11-26T12:19:40.972Z,17.65
2022-11-26T12:22:20.598Z,16.88
2022-11-26T12:24:54.903Z,17.98
2022-11-26T12:27:32.057Z,17.25
2022-11-26T12:30:05.159Z,17.77
2022-11-26T12:32:40.239Z,16.25
2022-11-26T12:35:16.238Z,16.00
2022-11-26T12:37:51.800Z,16.17
2022-11-26T12:40:31.712Z,16.05
2022-11-26T12:43:07.998Z,15.23
2022-11-26T12:45:50.583Z,16.08
2022-11-26T12:48:37.733Z,16.08
2022-11-26T12:51:20.966Z,16.70
2022-11-26T12:53:59.063Z,16.85
2022-11-26T12:56:34.957Z,16.90
2022-11-26T12:59:07.835Z,15.82
2022-11-26T13:01:39.880Z,15.98
2022-11-26T13:07:15.587Z,14.90
2022-11-26T13:09:59.272Z,14.13
2022-11-26T13:12:39.890Z,14.57
2022-11-26T13:15:19.544Z,14.30
2022-11-26T13:17:50.850Z,15.55
2022-11-26T13:20:35.651Z,14.25
2022-11-26T13:23:37.061Z,13.48
2022-11-26T13:26:47.065Z,14.13
2022-11-26T13:29:48.208Z,12.45
2022-11-26T13:32:44.085Z,13.38
2022-11-26T13:35:25.374Z,13.75
2022-11-26T13:38:12.063Z,12.90
2022-11-26T13:41:07.829Z,9.52
2022-11-26T13:44:02.418Z,11.10
2022-11-26T13:46:36.017Z,10.95
2022-11-26T13:49:09.181Z,11.13
2022-11-26T13:51:44.159Z,12.15
2022-11-26T13:54:16.693Z,12.00
2022-11-26T13:56:50.564Z,10.23
2022-11-26T13:59:40.330Z,11.00
2022-11-26T14:02:47.662Z,10.02
2022-11-26T14:05:18.733Z,10.75
2022-11-26T14:07:58.669Z,9.70
2022-11-26T14:10:44.927Z,9.85
2022-11-26T14:13:17.955Z,11.75
2022-11-26T14:15:58.083Z,12.02
2022-11-26T14:19:07.766Z,13.18
2022-11-26T14:22:03.942Z,13.82
2022-11-26T14:24:55.701Z,14.25
2022-11-26T14:27:26.481Z,14.25
2022-11-26T14:30:04.647Z,12.80
2022-11-26T14:32:43.366Z,13.57
2022-11-26T14:35:34.023Z,14.63
2022-11-26T14:38:05.462Z,14.20
2022-11-26T14:40:36.206Z,15.25
2022-11-26T14:45:41.387Z,14.20
2022-11-26T14:48:27.995Z,13.05
2022-11-26T14:51:00.945Z,13.80
2022-11-26T14:53:34.159Z,13.32
2022-11-26T14:56:05.675Z,13.07
2022-11-26T14:58:38.008Z,12.18
2022-11-26T15:01:20.996Z,12.27
2022-11-26T15:04:03.750Z,13.05
2022-11-26T15:06:38.386Z,12.23
2022-11-26T15:09:11.551Z,13.50
2022-11-26T15:11:44.123Z,12.27
2022-11-26T15:14:21.795Z,12.82
2022-11-26T15:16:57.744Z,14.25
2022-11-26T15:19:31.817Z,14.65
2022-11-26T15:22:07.432Z,13.82
2022-11-26T15:24:39.026Z,14.35
2022-11-26T15:27:32.412Z,13.95
2022-11-26T15:30:01.086Z,14.05
2022-11-26T15:32:31.465Z,12.45
2022-11-26T15:35:04.483Z,13.48
2022-11-26T15:37:34.031Z,13.38
2022-11-26T15:40:11.397Z,14.65
2022-11-26T15:42:40.776Z,14.65
2022-11-26T15:45:16.411Z,13.43
2022-11-26T15:47:49.613Z,13.60
2022-11-26T15:50:27.727Z,14.07
2022-11-26T15:53:01.614Z,13.02
2022-11-26T15:55:35.085Z,13.35
2022-11-26T15:58:11.281Z,14.02
2022-11-26T16:00:43.967Z,13.52
2022-11-26T16:03:35.075Z,14.70
2022-11-26T16:06:08.789Z,14.23
2022-11-26T16:08:38.995Z,13.68
2022-11-26T16:11:09.935Z,14.43
2022-11-26T16:13:41.996Z,14.07
2022-11-26T16:16:18.840Z,13.75
2022-11-26T16:18:54.205Z,13.25
2022-11-26T16:21:28.389Z,12.45
2022-11-26T16:24:00.895Z,14.63
2022-11-26T16:26:30.527Z,12.55
2022-11-26T16:29:02.276Z,12.32
2022-11-26T16:34:00.096Z,13.07
2022-11-26T16:36:35.101Z,12.15
2022-11-26T16:39:03.773Z,13.38
2022-11-26T16:41:34.306Z,12.40
2022-11-26T16:44:03.755Z,12.85
2022-11-26T16:46:32.792Z,11.32
2022-11-26T16:49:01.567Z,13.45
2022-11-26T16:51:32.488Z,12.80
2022-11-26T16:54:02.080Z,12.63
2022-11-26T16:56:37.470Z,12.48
2022-11-26T16:59:07.469Z,12.02
2022-11-26T17:01:36.238Z,11.75
2022-11-26T17:04:05.772Z,10.60
2022-11-26T17:06:36.035Z,12.93
2022-11-26T17:09:05.760Z,12.05
2022-11-26T17:11:35.377Z,12.40
2022-11-26T17:14:04.176Z,12.27
2022-11-26T17:16:32.807Z,12.88
2022-11-26T17:19:01.361Z,12.35
2022-11-26T17:21:30.386Z,12.40
2022-11-26T17:24:00.493Z,12.25
2022-11-26T17:26:29.196Z,13.00
2022-11-26T17:28:57.649Z,11.63
2022-11-26T17:31:31.135Z,12.00
2022-11-26T17:34:00.592Z,12.45
2022-11-26T17:36:36.665Z,13.07
2022-11-26T17:39:07.515Z,13.38
2022-11-26T17:41:37.238Z,12.98
2022-11-26T17:44:06.205Z,13.25
2022-11-26T17:46:42.987Z,12.55
2022-11-26T17:49:24.237Z,12.73
2022-11-26T17:51:55.355Z,11.75
2022-11-26T17:54:25.215Z,12.77
2022-11-26T17:56:54.124Z,13.32
2022-11-26T17:59:24.019Z,15.30
2022-11-26T18:01:53.058Z,16.48
2022-11-26T18:04:22.038Z,15.77
2022-11-26T18:06:58.535Z,15.02
2022-11-26T18:09:30.092Z,15.40
2022-11-26T18:11:58.859Z,13.20
2022-11-26T18:14:27.843Z,11.38
2022-11-26T18:16:56.927Z,12.00
2022-11-26T18:19:25.829Z,11.98
2022-11-26T18:21:55.004Z,11.65
2022-11-26T18:24:23.812Z,11.48
2022-11-26T18:26:56.856Z,12.40
2022-11-26T18:31:54.513Z,12.05
2022-11-26T18:34:25.583Z,10.98
2022-11-26T18:36:54.500Z,11.77
2022-11-26T18:39:23.316Z,10.77
2022-11-26T18:42:00.732Z,11.55
2022-11-26T18:44:44.119Z,11.43
2022-11-26T18:47:13.790Z,11.75
2022-11-26T18:49:47.265Z,11.35
2022-11-26T18:52:16.488Z,12.25
2022-11-26T18:54:48.311Z,11.55
2022-11-26T18:59:47.628Z,12.50
2022-11-26T19:02:16.226Z,13.23
2022-11-26T19:04:45.391Z,12.77
2022-11-26T19:07:15.959Z,13.95
2022-11-26T19:09:44.748Z,12.98
2022-11-26T19:12:14.811Z,12.70
2022-11-26T19:14:43.461Z,13.00
2022-11-26T19:17:13.647Z,12.18
2022-11-26T19:19:43.150Z,13.70
2022-11-26T19:22:11.723Z,13.70
2022-11-26T19:24:40.719Z,13.45
2022-11-26T19:27:10.519Z,14.32
2022-11-26T19:29:40.111Z,13.70
2022-11-26T19:32:09.075Z,13.43
2022-11-26T19:34:40.469Z,13.43
2022-11-26T19:37:09.507Z,12.93
2022-11-26T19:39:38.593Z,13.27
2022-11-26T19:42:11.021Z,13.68
2022-11-26T19:44:39.985Z,12.98
2022-11-26T19:47:08.653Z,12.57
2022-11-26T19:49:39.326Z,12.20
2022-11-26T19:52:08.682Z,12.38
2022-11-26T19:54:37.812Z,11.48
2022-11-26T19:57:07.370Z,13.10
2022-11-26T19:59:36.885Z,14.00
2022-11-26T20:02:05.923Z,12.55
2022-11-26T20:04:34.715Z,12.93
2022-11-26T20:07:05.826Z,11.80
2022-11-26T20:09:35.268Z,11.40
2022-11-26T20:12:04.277Z,12.00
2022-11-26T20:14:33.474Z,11.40
2022-11-26T20:17:02.975Z,11.90
2022-11-26T20:19:32.438Z,12.18
2022-11-26T20:22:01.189Z,13.20
2022-11-26T20:24:31.587Z,11.68
2022-11-26T20:27:00.310Z,12.25
2022-11-26T20:29:28.894Z,11.70
2022-11-26T20:31:57.878Z,11.18
2022-11-26T20:34:28.052Z,11.40
2022-11-26T20:36:57.574Z,11.73
2022-11-26T20:39:26.421Z,11.00
2022-11-26T20:41:56.637Z,10.82
2022-11-26T20:44:27.075Z,10.82
2022-11-26T20:46:57.628Z,9.80
2022-11-26T20:49:30.810Z,11.00
2022-11-26T20:52:02.406Z,9.95
2022-11-26T20:54:31.643Z,10.73
2022-11-26T20:57:02.866Z,9.95
2022-11-26T20:59:31.577Z,10.55
2022-11-26T21:02:01.996Z,10.15
2022-11-26T21:04:31.459Z,11.15
2022-11-26T21:07:00.178Z,10.70
2022-11-26T21:09:28.893Z,11.23
2022-11-26T21:11:58.279Z,11.27
2022-11-26T21:14:29.812Z,11.20
2022-11-26T21:16:58.678Z,10.93
2022-11-26T21:19:27.662Z,10.80
2022-11-26T21:21:57.255Z,11.13
2022-11-26T21:24:26.215Z,11.55
2022-11-26T21:26:55.232Z,11.00
2022-11-26T21:29:24.000Z,11.88
2022-11-26T21:31:54.573Z,11.25
2022-11-26T21:34:24.068Z,11.23
2022-11-26T21:36:53.402Z,11.25
2022-11-26T21:39:22.707Z,11.23
2022-11-26T21:41:53.016Z,11.73
2022-11-26T21:44:22.127Z,11.70
2022-11-26T21:46:51.244Z,12.57
2022-11-26T21:49:21.478Z,13.45
2022-11-26T21:51:50.700Z,11.88
2022-11-26T21:54:19.544Z,12.55
2022-11-26T21:56:48.577Z,11.85
2022-11-26T21:59:18.105Z,13.02
2022-11-26T22:01:47.695Z,13.05
2022-11-26T22:04:18.519Z,12.07
2022-11-26T22:06:50.437Z,12.32
2022-11-26T22:11:48.746Z,13.23
2022-11-26T22:14:18.866Z,12.52
2022-11-26T22:16:48.661Z,14.65
2022-11-26T22:19:17.807Z,13.32
2022-11-26T22:21:48.601Z,15.25
2022-11-26T22:24:18.423Z,12.40
2022-11-26T22:26:47.761Z,13.80
2022-11-26T22:29:17.899Z,16.55
2022-11-26T22:31:48.475Z,15.20
2022-11-26T22:34:19.096Z,16.27
2022-11-26T22:36:49.662Z,14.25
2022-11-26T22:39:20.283Z,14.90
2022-11-26T22:41:50.578Z,16.30
2022-11-26T22:44:19.957Z,16.88
2022-11-26T22:46:48.839Z,15.82
2022-11-26T22:49:19.621Z,16.27
2022-11-26T22:51:50.013Z,15.87
2022-11-26T22:54:19.681Z,15.98
2022-11-26T22:56:48.906Z,18.52
2022-11-26T22:59:17.325Z,16.50
2022-11-26T23:01:46.223Z,19.98
2022-11-26T23:04:15.356Z,18.48
2022-11-26T23:06:44.364Z,19.55
2022-11-26T23:09:14.750Z,19.50
2022-11-26T23:11:44.032Z,18.75
2022-11-26T23:14:13.274Z,20.85
2022-11-26T23:16:43.909Z,20.08
2022-11-26T23:19:19.789Z,20.95
2022-11-26T23:21:50.044Z,20.88
2022-11-26T23:24:21.163Z,21.13
2022-11-26T23:26:50.320Z,20.80
2022-11-26T23:29:19.294Z,18.42
2022-11-26T23:31:48.515Z,19.42
2022-11-26T23:34:17.797Z,21.75
2022-11-26T23:36:46.695Z,20.50
2022-11-26T23:39:16.477Z,21.73
2022-11-26T23:41:46.689Z,20.02
2022-11-26T23:44:15.942Z,21.67
2022-11-26T23:46:45.373Z,20.70
2022-11-26T23:49:14.242Z,19.77
2022-11-26T23:51:43.084Z,21.55
2022-11-26T23:54:11.707Z,21.40
2022-11-26T23:56:44.919Z,20.45
2022-11-26T23:59:16.169Z,19.58
